Time;durP1;ratioP1;P1;durP2;ratioP2;P2;SDS_P1;SDS_P2;PMS_P1;PMS_P2;Temp;Humidity;BMP_temperature;BMP_pressure;BME280_temperature;BME280_humidity;BME280_pressure;Samples;Min_cycle;Max_cycle;Signal;HPM_P1;HPM_P2
2022/07/16 00:02:26;;;;;;;2.55;0.60;;;16.00;99.90;;;;;;5029876;28;20063;-82
2022/07/16 00:04:51;;;;;;;1.80;0.43;;;15.90;99.90;;;;;;5031333;28;20092;-81
2022/07/16 00:07:19;;;;;;;1.10;0.45;;;15.80;99.90;;;;;;5014079;28;20144;-82
2022/07/16 00:09:44;;;;;;;0.77;0.32;;;15.70;99.90;;;;;;5014010;28;20038;-82
2022/07/16 00:12:10;;;;;;;2.15;0.70;;;15.60;99.90;;;;;;5029582;28;20046;-80
2022/07/16 00:14:35;;;;;;;4.07;0.60;;;15.50;99.90;;;;;;5029324;28;20088;-81
2022/07/16 00:17:02;;;;;;;1.27;0.40;;;15.40;99.90;;;;;;5015270;28;20050;-81
2022/07/16 00:19:27;;;;;;;3.25;0.85;;;15.30;99.90;;;;;;5014109;28;20053;-80
2022/07/16 00:21:55;;;;;;;1.58;0.50;;;15.30;99.90;;;;;;5025498;28;20500;-80
2022/07/16 00:24:21;;;;;;;1.80;0.65;;;15.40;99.90;;;;;;5010718;28;20037;-81
2022/07/16 00:26:47;;;;;;;1.27;0.60;;;15.40;99.90;;;;;;5029122;28;20105;-81
2022/07/16 00:29:13;;;;;;;1.52;0.40;;;15.50;99.90;;;;;;5027933;28;20081;-79
2022/07/16 00:31:39;;;;;;;3.28;0.70;;;15.50;99.90;;;;;;5008485;28;20037;-81
2022/07/16 00:34:06;;;;;;;1.52;0.70;;;15.60;99.90;;;;;;5011052;28;20455;-81
2022/07/16 00:36:33;;;;;;;2.45;0.60;;;15.70;99.90;;;;;;5015080;28;20136;-81
2022/07/16 00:38:58;;;;;;;11.07;1.52;;;15.70;99.90;;;;;;5014892;28;20042;-81
2022/07/16 00:41:24;;;;;;;3.08;0.82;;;15.80;99.90;;;;;;5027578;28;20129;-81
2022/07/16 00:44:03;;;;;;;2.08;0.68;;;15.80;99.90;;;;;;5008130;28;20045;-81
2022/07/16 00:46:29;;;;;;;2.45;0.77;;;15.90;99.90;;;;;;5010288;28;20045;-82
2022/07/16 00:48:56;;;;;;;1.77;0.70;;;15.90;99.90;;;;;;5007425;28;20547;-81
2022/07/16 00:51:22;;;;;;;2.10;0.90;;;15.90;99.90;;;;;;5006459;28;20037;-81
2022/07/16 00:53:49;;;;;;;4.43;0.85;;;16.00;99.90;;;;;;5011830;28;20045;-81
2022/07/16 00:56:16;;;;;;;2.38;0.88;;;16.00;99.90;;;;;;5021451;28;20045;-80
2022/07/16 00:58:43;;;;;;;3.00;0.90;;;16.00;99.90;;;;;;5010462;28;20094;-81
2022/07/16 01:01:09;;;;;;;1.52;0.85;;;16.00;99.90;;;;;;5008405;28;20058;-80
2022/07/16 01:03:36;;;;;;;1.10;0.80;;;16.00;99.90;;;;;;5007440;28;20050;-80
2022/07/16 01:06:06;;;;;;;2.85;1.38;;;16.00;99.90;;;;;;5008313;28;20037;-81
2022/07/16 01:08:37;;;;;;;6.90;1.23;;;16.10;99.90;;;;;;5022748;28;20677;-81
2022/07/16 01:11:06;;;;;;;2.40;0.88;;;16.10;99.90;;;;;;5026573;28;20737;-81
2022/07/16 01:13:33;;;;;;;2.30;1.08;;;16.10;99.90;;;;;;5026186;28;20049;-81
2022/07/16 01:15:59;;;;;;;3.25;1.00;;;16.10;99.90;;;;;;5009066;28;20033;-79
2022/07/16 01:18:25;;;;;;;2.22;0.80;;;16.20;99.90;;;;;;5008964;28;20088;-81
2022/07/16 01:20:50;;;;;;;5.07;1.08;;;16.10;99.90;;;;;;5010471;28;20046;-81
2022/07/16 01:23:19;;;;;;;2.47;1.58;;;16.10;99.90;;;;;;4989676;28;20096;-81
2022/07/16 01:25:45;;;;;;;3.08;0.95;;;16.20;99.90;;;;;;5007431;28;20068;-81
2022/07/16 01:28:11;;;;;;;5.45;1.55;;;16.20;99.90;;;;;;5014585;28;20049;-81
2022/07/16 01:30:37;;;;;;;5.35;1.27;;;16.20;99.90;;;;;;5004712;28;20037;-81
2022/07/16 01:33:19;;;;;;;5.70;1.40;;;16.20;99.90;;;;;;5022959;28;20472;-79
2022/07/16 01:35:44;;;;;;;4.78;2.13;;;16.20;99.90;;;;;;5019602;28;20034;-80
2022/07/16 01:38:13;;;;;;;6.95;2.25;;;16.20;99.90;;;;;;5007758;28;20107;-81
2022/07/16 01:40:39;;;;;;;4.57;1.80;;;16.10;99.90;;;;;;5021203;28;20052;-81
2022/07/16 01:43:15;;;;;;;4.97;2.58;;;16.10;99.90;;;;;;4989593;28;20037;-80
2022/07/16 01:45:41;;;;;;;4.82;2.10;;;16.10;99.90;;;;;;5003844;28;20053;-80
2022/07/16 01:48:07;;;;;;;2.85;1.63;;;16.10;99.90;;;;;;5018866;28;20041;-78
2022/07/16 01:50:32;;;;;;;4.75;2.28;;;16.00;99.90;;;;;;5005815;28;20423;-79
2022/07/16 01:52:58;;;;;;;4.43;2.08;;;16.10;99.90;;;;;;5003789;28;20151;-80
2022/07/16 01:55:23;;;;;;;8.40;2.05;;;16.00;99.90;;;;;;5006520;28;20140;-81
2022/07/16 01:57:49;;;;;;;6.57;1.63;;;16.00;99.90;;;;;;5021679;28;20034;-79
2022/07/16 02:00:14;;;;;;;4.88;2.00;;;16.00;99.90;;;;;;5006363;28;20092;-81
2022/07/16 02:02:40;;;;;;;2.20;1.75;;;15.90;99.90;;;;;;5006303;28;20083;-80
2022/07/16 02:05:06;;;;;;;4.60;2.40;;;16.00;99.90;;;;;;5020725;28;20049;-80
2022/07/16 02:07:32;;;;;;;2.55;1.77;;;16.00;99.90;;;;;;5007608;28;20033;-81
2022/07/16 02:09:57;;;;;;;3.25;1.88;;;16.00;99.90;;;;;;5006630;28;20029;-81
2022/07/16 02:12:23;;;;;;;4.72;2.10;;;15.90;99.90;;;;;;5019334;28;20049;-80
2022/07/16 02:14:48;;;;;;;5.57;1.80;;;15.90;99.90;;;;;;5003497;28;20272;-81
2022/07/16 02:17:14;;;;;;;3.92;1.95;;;15.90;99.90;;;;;;5018829;28;20034;-80
2022/07/16 02:19:39;;;;;;;4.55;2.10;;;15.90;99.90;;;;;;5007754;28;20045;-79
2022/07/16 02:22:06;;;;;;;4.70;1.50;;;15.90;99.90;;;;;;5006795;28;20037;-80
2022/07/16 02:24:32;;;;;;;4.63;1.70;;;15.90;99.90;;;;;;5004194;28;20041;-79
2022/07/16 02:26:58;;;;;;;3.78;1.70;;;15.90;99.90;;;;;;5006539;28;20048;-80
2022/07/16 02:29:23;;;;;;;5.78;1.88;;;15.90;99.90;;;;;;5007799;28;20045;-81
2022/07/16 02:31:49;;;;;;;3.67;1.55;;;15.90;99.90;;;;;;5008645;28;20125;-80
2022/07/16 02:34:14;;;;;;;3.67;1.85;;;15.90;99.90;;;;;;5006433;28;20055;-79
2022/07/16 02:36:40;;;;;;;5.10;2.15;;;15.90;99.90;;;;;;5007738;28;20048;-80
2022/07/16 02:39:06;;;;;;;5.10;1.58;;;15.90;99.90;;;;;;5012461;28;20038;-81
2022/07/16 02:41:31;;;;;;;3.38;1.00;;;15.90;99.90;;;;;;5009610;28;20095;-81
2022/07/16 02:43:57;;;;;;;6.10;1.13;;;15.90;99.90;;;;;;5024684;28;20191;-81
2022/07/16 02:46:22;;;;;;;3.75;1.05;;;15.90;99.90;;;;;;5020688;28;20038;-80
2022/07/16 02:48:48;;;;;;;6.35;1.45;;;15.90;99.90;;;;;;5005633;28;20399;-80
2022/07/16 02:51:13;;;;;;;2.25;1.20;;;15.80;99.90;;;;;;5003631;28;20050;-81
2022/07/16 02:53:40;;;;;;;3.20;1.23;;;15.90;99.90;;;;;;5005840;28;20044;-81
2022/07/16 02:56:05;;;;;;;4.43;1.05;;;15.90;99.90;;;;;;5004543;28;20156;-81
2022/07/16 02:58:31;;;;;;;7.47;1.95;;;15.90;99.90;;;;;;5026976;28;20177;-79
2022/07/16 03:00:56;;;;;;;5.90;1.00;;;15.90;99.90;;;;;;5014273;28;20081;-81
2022/07/16 03:03:22;;;;;;;3.80;1.30;;;15.90;99.90;;;;;;5028388;28;20059;-81
2022/07/16 03:05:47;;;;;;;3.63;1.05;;;15.80;99.90;;;;;;5009737;28;20085;-80
2022/07/16 03:08:13;;;;;;;2.60;0.80;;;15.80;99.90;;;;;;5026224;28;20048;-81
2022/07/16 03:10:39;;;;;;;3.55;0.90;;;15.80;99.90;;;;;;5010332;28;20033;-80
2022/07/16 03:13:04;;;;;;;4.72;1.40;;;15.80;99.90;;;;;;5014913;28;20040;-81
2022/07/16 03:15:30;;;;;;;2.95;0.70;;;15.80;99.90;;;;;;5010436;28;20037;-80
2022/07/16 03:17:55;;;;;;;5.15;0.90;;;15.80;99.90;;;;;;5019721;28;20122;-79
2022/07/16 03:20:21;;;;;;;4.55;0.85;;;15.80;99.90;;;;;;5006187;28;20038;-81
2022/07/16 03:22:47;;;;;;;5.53;1.20;;;15.70;99.90;;;;;;4996195;28;20804;-81
2022/07/16 03:25:14;;;;;;;5.50;1.05;;;15.70;99.90;;;;;;5015417;28;20052;-81
2022/07/16 03:27:40;;;;;;;6.00;0.93;;;15.70;99.90;;;;;;5024207;28;20073;-79
2022/07/16 03:30:06;;;;;;;5.28;1.45;;;15.70;99.90;;;;;;5026891;28;20072;-81
2022/07/16 03:32:32;;;;;;;11.13;1.02;;;15.70;99.90;;;;;;5008781;28;20068;-81
2022/07/16 03:34:57;;;;;;;5.30;0.77;;;15.70;99.90;;;;;;4991662;28;20496;-81
2022/07/16 03:37:23;;;;;;;4.15;0.90;;;15.60;99.90;;;;;;5015282;28;20107;-81
2022/07/16 03:39:49;;;;;;;3.78;0.80;;;15.50;99.90;;;;;;5013791;28;20091;-80
2022/07/16 03:42:14;;;;;;;4.13;1.08;;;15.50;99.90;;;;;;5012730;28;20064;-81
2022/07/16 03:44:40;;;;;;;3.58;0.80;;;15.50;99.90;;;;;;4991525;28;20086;-80
2022/07/16 03:47:05;;;;;;;3.97;1.02;;;15.40;99.90;;;;;;5013451;28;20065;-82
2022/07/16 03:49:31;;;;;;;5.22;0.70;;;15.30;99.90;;;;;;5029212;28;20045;-81
2022/07/16 03:51:56;;;;;;;4.78;1.42;;;15.40;99.90;;;;;;5014963;28;20049;-81
2022/07/16 03:54:22;;;;;;;5.03;1.15;;;15.30;99.90;;;;;;5011105;28;20041;-81
2022/07/16 03:56:47;;;;;;;5.38;1.02;;;15.30;99.90;;;;;;5010917;28;20041;-80
2022/07/16 03:59:13;;;;;;;3.10;0.60;;;15.20;99.90;;;;;;5012797;28;20188;-80
2022/07/16 04:01:39;;;;;;;5.25;0.90;;;15.20;99.90;;;;;;5014059;28;20136;-80
2022/07/16 04:04:05;;;;;;;5.20;0.77;;;15.20;99.90;;;;;;5023505;28;20136;-81
2022/07/16 04:06:31;;;;;;;4.50;0.82;;;15.10;99.90;;;;;;5005662;28;20041;-80
2022/07/16 04:08:56;;;;;;;3.63;0.80;;;15.20;99.90;;;;;;5008481;28;20102;-81
2022/07/16 04:11:22;;;;;;;3.95;0.98;;;15.10;99.90;;;;;;5020094;28;20037;-80
2022/07/16 04:13:48;;;;;;;2.63;1.10;;;15.10;99.90;;;;;;5011899;28;20065;-81
2022/07/16 04:16:13;;;;;;;4.47;0.75;;;15.10;99.90;;;;;;5008298;28;20048;-81
2022/07/16 04:18:39;;;;;;;3.50;1.20;;;15.10;99.90;;;;;;4995352;28;20039;-81
2022/07/16 04:21:05;;;;;;;6.38;1.00;;;15.20;99.90;;;;;;5026080;28;20052;-81
2022/07/16 04:23:31;;;;;;;4.10;1.02;;;15.30;99.90;;;;;;5016595;28;20041;-81
2022/07/16 04:25:57;;;;;;;1.23;0.68;;;15.50;99.90;;;;;;5024313;28;20515;-81
2022/07/16 04:28:23;;;;;;;3.88;0.77;;;16.10;99.90;;;;;;5007772;28;20091;-80
2022/07/16 04:30:48;;;;;;;1.77;0.40;;;16.90;99.90;;;;;;5020345;28;20455;-81
2022/07/16 04:33:14;;;;;;;3.25;0.82;;;17.50;99.90;;;;;;5005948;28;20060;-81
2022/07/16 04:35:39;;;;;;;3.78;0.93;;;18.30;99.90;;;;;;5010650;28;20048;-81
2022/07/16 04:38:05;;;;;;;2.60;0.82;;;18.70;99.90;;;;;;5027219;28;20520;-81
2022/07/16 04:40:31;;;;;;;4.82;0.80;;;19.10;99.90;;;;;;5011982;28;20142;-81
2022/07/16 04:42:56;;;;;;;3.25;0.90;;;19.90;99.90;;;;;;5011920;28;20041;-79
2022/07/16 04:45:22;;;;;;;2.58;0.70;;;20.70;99.90;;;;;;5013743;28;20049;-81
2022/07/16 04:47:47;;;;;;;3.70;0.68;;;21.30;99.90;;;;;;5021305;28;20041;-81
2022/07/16 04:50:13;;;;;;;4.82;0.90;;;21.70;99.90;;;;;;5021450;28;20045;-80
2022/07/16 04:52:39;;;;;;;4.30;0.98;;;21.30;99.90;;;;;;5014039;28;20049;-81
2022/07/16 04:55:05;;;;;;;4.22;1.27;;;21.40;99.90;;;;;;4995634;28;20850;-81
2022/07/16 04:57:31;;;;;;;3.08;1.05;;;21.50;99.90;;;;;;5026930;28;20060;-79
2022/07/16 04:59:56;;;;;;;3.38;0.85;;;20.90;99.90;;;;;;4992328;28;20129;-79
2022/07/16 05:05:07;;;;;;;4.30;1.00;;;20.20;99.90;;;;;;5026359;28;20049;-81
2022/07/16 05:07:32;;;;;;;3.63;0.82;;;19.70;99.90;;;;;;5008861;28;20049;-81
2022/07/16 05:09:58;;;;;;;4.80;1.13;;;19.40;99.90;;;;;;5010535;28;20042;-80
2022/07/16 05:12:24;;;;;;;3.88;0.70;;;19.10;99.90;;;;;;5014628;28;20049;-81
2022/07/16 05:14:49;;;;;;;2.90;0.70;;;18.90;99.90;;;;;;5023731;28;20737;-81
2022/07/16 05:17:15;;;;;;;3.40;0.80;;;18.80;99.90;;;;;;5009052;28;20052;-80
2022/07/16 05:19:40;;;;;;;5.65;0.70;;;18.90;99.90;;;;;;4987178;28;20048;-79
2022/07/16 05:22:06;;;;;;;4.05;0.75;;;19.40;99.90;;;;;;5023694;28;20099;-81
2022/07/16 05:24:32;;;;;;;9.15;1.48;;;20.80;99.90;;;;;;4992317;28;20033;-81
2022/07/16 05:26:58;;;;;;;2.63;0.90;;;22.50;99.90;;;;;;5007783;28;20071;-81
2022/07/16 05:29:24;;;;;;;3.15;0.77;;;23.70;99.90;;;;;;5003827;28;20046;-81
2022/07/16 05:31:50;;;;;;;4.10;0.85;;;25.00;99.90;;;;;;5010310;28;20041;-81
2022/07/16 05:34:16;;;;;;;6.70;0.93;;;26.10;99.90;;;;;;4993108;28;20064;-81
2022/07/16 05:36:41;;;;;;;2.80;0.75;;;27.20;99.90;;;;;;5022259;28;20033;-81
2022/07/16 05:39:07;;;;;;;5.30;1.10;;;28.10;99.90;;;;;;5010056;28;20056;-81
2022/07/16 05:41:32;;;;;;;4.63;0.70;;;28.90;99.90;;;;;;5006786;28;20060;-81
2022/07/16 05:43:59;;;;;;;5.65;0.80;;;29.30;99.70;;;;;;5021053;28;20065;-80
2022/07/16 05:46:25;;;;;;;3.83;1.08;;;28.70;98.70;;;;;;5011171;28;20053;-80
2022/07/16 05:48:50;;;;;;;6.35;1.35;;;28.10;98.80;;;;;;5024485;28;20049;-81
2022/07/16 05:51:16;;;;;;;4.47;0.70;;;27.50;99.40;;;;;;5006123;28;20038;-80
2022/07/16 05:53:41;;;;;;;3.08;0.63;;;26.90;99.30;;;;;;5021630;28;20044;-81
2022/07/16 05:56:07;;;;;;;4.43;1.02;;;26.50;99.50;;;;;;5005579;28;20046;-80
2022/07/16 05:58:32;;;;;;;7.25;1.10;;;26.10;99.40;;;;;;5008242;28;20038;-80
2022/07/16 06:00:58;;;;;;;4.20;0.80;;;25.70;99.50;;;;;;5009923;28;20049;-80
2022/07/16 06:03:23;;;;;;;5.22;0.88;;;25.40;99.50;;;;;;5007881;28;20049;-81
2022/07/16 06:05:49;;;;;;;2.20;0.70;;;25.30;99.90;;;;;;5012581;28;20045;-81
2022/07/16 06:08:14;;;;;;;6.78;0.80;;;25.10;99.90;;;;;;5019992;28;20068;-81
2022/07/16 06:10:40;;;;;;;5.45;1.08;;;24.70;99.80;;;;;;5002060;28;20069;-80
2022/07/16 06:13:07;;;;;;;4.25;0.75;;;24.60;99.80;;;;;;5003739;28;20048;-80
2022/07/16 06:15:33;;;;;;;4.80;1.13;;;24.50;99.90;;;;;;5010282;28;20500;-79
2022/07/16 06:21:30;;;;;;;47.72;2.42;;;24.30;99.90;;;;;;5010885;28;20192;-82
2022/07/16 06:23:55;;;;;;;5.95;0.70;;;24.30;99.90;;;;;;5009146;28;20095;-81
2022/07/16 06:26:21;;;;;;;3.97;0.73;;;24.30;99.90;;;;;;5000321;28;20056;-78
2022/07/16 06:28:47;;;;;;;5.57;0.95;;;24.20;99.90;;;;;;5021972;28;20034;-80
2022/07/16 06:31:12;;;;;;;3.40;0.95;;;24.30;99.90;;;;;;5003189;28;20041;-80
2022/07/16 06:33:38;;;;;;;3.45;0.73;;;24.30;99.70;;;;;;5006994;28;20045;-81
2022/07/16 06:36:05;;;;;;;4.22;1.10;;;24.40;99.90;;;;;;5007708;28;20058;-83
2022/07/16 06:38:31;;;;;;;10.38;0.80;;;24.20;99.40;;;;;;5012343;28;20124;-83
2022/07/16 06:40:56;;;;;;;3.38;0.90;;;24.10;99.50;;;;;;5004609;28;20124;-84
2022/07/16 06:43:22;;;;;;;3.60;0.80;;;24.20;99.60;;;;;;5015242;28;20104;-85
2022/07/16 06:45:48;;;;;;;4.95;0.98;;;24.30;99.60;;;;;;4993917;28;20095;-84
2022/07/16 06:48:13;;;;;;;3.92;0.60;;;24.40;99.50;;;;;;4995194;28;20049;-83
2022/07/16 06:50:39;;;;;;;4.68;0.57;;;24.70;99.00;;;;;;5006780;28;20100;-83
2022/07/16 06:53:10;;;;;;;3.78;0.85;;;24.90;99.00;;;;;;5009774;28;20059;-85
2022/07/16 06:55:36;;;;;;;3.92;0.80;;;25.20;98.40;;;;;;4988393;28;20079;-84
2022/07/16 06:58:10;;;;;;;8.00;0.82;;;24.80;98.00;;;;;;5020289;28;20045;-84
2022/07/16 07:02:08;;;;;;;4.90;0.90;;;24.60;98.30;;;;;;4987646;28;20045;-84
2022/07/16 07:04:43;;;;;;;6.18;1.17;;;23.80;97.80;;;;;;4972983;28;20057;-82
2022/07/16 07:07:09;;;;;;;6.20;0.93;;;23.20;98.70;;;;;;4961547;28;20618;-82
2022/07/16 07:09:35;;;;;;;5.85;1.10;;;22.60;99.00;;;;;;4997817;28;20072;-80
2022/07/16 07:12:00;;;;;;;8.52;0.95;;;22.30;99.30;;;;;;5023868;28;20034;-80
2022/07/16 07:14:26;;;;;;;4.97;0.75;;;21.90;99.50;;;;;;5016242;28;20103;-81
2022/07/16 07:16:52;;;;;;;2.63;0.65;;;21.70;99.60;;;;;;5012200;28;20037;-79
2022/07/16 07:19:17;;;;;;;3.25;0.85;;;21.60;99.90;;;;;;5011203;28;20069;-81
2022/07/16 07:21:43;;;;;;;3.67;1.40;;;21.80;99.70;;;;;;5011820;28;20101;-82
2022/07/16 07:24:08;;;;;;;4.07;0.47;;;22.20;99.00;;;;;;5016142;28;20092;-80
2022/07/16 07:26:34;;;;;;;4.70;0.98;;;22.50;98.70;;;;;;5015966;28;20063;-81
2022/07/16 07:29:00;;;;;;;7.88;0.95;;;22.80;98.30;;;;;;5011196;28;20041;-82
2022/07/16 07:31:25;;;;;;;4.32;0.77;;;23.20;98.30;;;;;;5016224;28;20040;-80
2022/07/16 07:33:51;;;;;;;5.88;0.88;;;23.40;97.50;;;;;;5016594;28;20034;-82
2022/07/16 07:36:16;;;;;;;4.32;0.95;;;23.60;97.70;;;;;;5022832;28;20046;-82
2022/07/16 07:38:42;;;;;;;2.03;0.40;;;23.40;96.90;;;;;;5019751;28;20047;-82
2022/07/16 07:41:09;;;;;;;1.75;0.30;;;23.20;96.80;;;;;;5030721;28;20049;-81
2022/07/16 07:43:34;;;;;;;5.35;0.70;;;23.20;96.90;;;;;;5033382;28;20042;-80
2022/07/16 07:46:00;;;;;;;3.65;0.40;;;23.30;97.10;;;;;;5018807;28;20076;-82
2022/07/16 07:48:25;;;;;;;2.33;0.40;;;23.50;96.30;;;;;;5030971;28;20502;-83
2022/07/16 07:50:51;;;;;;;2.88;0.60;;;23.10;95.10;;;;;;5027176;28;20046;-81
2022/07/16 07:53:16;;;;;;;3.90;0.47;;;23.10;95.40;;;;;;5031799;28;20042;-81
2022/07/16 07:55:42;;;;;;;1.98;0.40;;;23.10;95.40;;;;;;5031701;28;20041;-82
2022/07/16 07:58:09;;;;;;;5.50;0.80;;;23.10;95.60;;;;;;5018258;28;20157;-83
2022/07/16 08:00:35;;;;;;;4.80;1.05;;;23.00;95.70;;;;;;5034226;28;20044;-81
2022/07/16 08:03:01;;;;;;;6.03;1.00;;;23.10;95.90;;;;;;5036533;28;20124;-83
2022/07/16 08:05:26;;;;;;;2.75;0.95;;;23.30;96.40;;;;;;5010683;28;20068;-83
2022/07/16 08:07:52;;;;;;;5.40;0.50;;;23.10;95.80;;;;;;5033264;28;20365;-82
2022/07/16 08:10:17;;;;;;;2.72;0.63;;;22.90;95.70;;;;;;5028015;28;20025;-82
2022/07/16 08:13:44;;;;;;;;;;;;;;;;;;;;;
2022/07/16 08:16:49;;;;;;;3.92;0.50;;;23.00;96.10;;;;;;5008836;28;20041;-83
2022/07/16 08:19:17;;;;;;;6.38;0.60;;;23.30;95.90;;;;;;5006603;28;20045;-82
2022/07/16 08:21:45;;;;;;;5.13;0.40;;;23.50;95.80;;;;;;5016916;28;20049;-81
2022/07/16 08:26:55;;;;;;;1.80;0.50;;;23.80;95.10;;;;;;5029314;28;20045;-81
2022/07/16 08:29:21;;;;;;;3.38;0.50;;;23.90;95.50;;;;;;5013678;28;20122;-82
2022/07/16 08:31:46;;;;;;;5.18;0.60;;;23.60;94.80;;;;;;5027677;28;20034;-81
2022/07/16 08:34:12;;;;;;;3.80;0.60;;;23.50;94.40;;;;;;5018366;28;20069;-82
2022/07/16 08:36:37;;;;;;;4.63;0.93;;;23.70;95.10;;;;;;5030391;28;20081;-81
2022/07/16 08:39:03;;;;;;;2.17;0.60;;;23.80;94.20;;;;;;5015227;28;20061;-81
2022/07/16 08:41:31;;;;;;;4.00;0.40;;;23.60;93.70;;;;;;5029744;28;20041;-82
2022/07/16 08:43:57;;;;;;;4.88;0.52;;;23.70;94.60;;;;;;5015338;28;20415;-80
2022/07/16 08:46:23;;;;;;;2.33;0.45;;;23.80;94.50;;;;;;5014338;28;20057;-81
2022/07/16 08:48:49;;;;;;;2.00;0.50;;;24.20;94.30;;;;;;5031403;28;20036;-82
2022/07/16 08:51:19;;;;;;;3.28;0.60;;;24.30;93.50;;;;;;5013011;28;20041;-82
2022/07/16 08:53:45;;;;;;;3.97;0.90;;;24.10;92.70;;;;;;5013472;28;20076;-82
2022/07/16 08:56:11;;;;;;;3.38;0.47;;;23.60;91.70;;;;;;5022646;28;20033;-81
2022/07/16 08:58:37;;;;;;;0.98;0.30;;;23.50;92.30;;;;;;5016045;28;20042;-80
2022/07/16 09:01:02;;;;;;;2.35;0.30;;;23.40;93.00;;;;;;5017101;28;20101;-81
2022/07/16 09:03:28;;;;;;;6.57;0.70;;;23.30;93.20;;;;;;5019524;28;20415;-83
2022/07/16 09:05:54;;;;;;;10.07;0.52;;;23.30;93.50;;;;;;5023793;28;20045;-81
2022/07/16 09:08:25;;;;;;;4.32;0.50;;;23.40;93.70;;;;;;5016011;28;20077;-84
2022/07/16 09:10:50;;;;;;;4.25;0.60;;;23.40;93.70;;;;;;5005611;28;20038;-84
2022/07/16 09:13:18;;;;;;;2.22;0.40;;;23.40;94.20;;;;;;5004186;28;20052;-85
2022/07/16 09:16:46;;;;;;;5.05;0.50;;;23.60;94.00;;;;;;5002996;28;20037;-85
2022/07/16 09:20:18;;;;;;;5.72;1.15;;;23.60;93.60;;;;;;5006488;28;20049;-88
2022/07/16 09:23:20;;;;;;;;;;;;;;;;;;;;;
2022/07/16 09:26:31;;;;;;;;;;;;;;;;;;;;;
2022/07/16 09:30:21;;;;;;;;;;;;;;;;;;;;;
2022/07/16 09:33:17;;;;;;;10.27;1.65;;;23.20;94.60;;;;;;4995992;28;20053;-85
2022/07/16 09:36:12;;;;;;;3.15;0.98;;;23.00;94.80;;;;;;5007070;28;20109;-80
2022/07/16 09:39:17;;;;;;;5.97;0.60;;;22.70;95.30;;;;;;5024845;28;20116;-83
2022/07/16 09:41:45;;;;;;;4.03;0.75;;;22.40;95.30;;;;;;5005400;28;20088;-83
2022/07/16 09:44:31;;;;;;;4.28;1.17;;;22.40;96.30;;;;;;5006859;28;20518;-81
2022/07/16 09:47:06;;;;;;;1.98;0.40;;;22.60;96.20;;;;;;5003574;28;20052;-81
2022/07/16 09:53:36;;;;;;;;;;;;;;;;;;;;;
2022/07/16 09:56:08;;;;;;;5.07;0.90;;;22.10;96.20;;;;;;5021050;28;20454;-81
2022/07/16 09:58:34;;;;;;;3.63;0.70;;;22.10;96.90;;;;;;5021242;28;20049;-80
2022/07/16 10:01:06;;;;;;;3.40;0.70;;;22.20;97.00;;;;;;5021733;28;20390;-82
2022/07/16 10:03:32;;;;;;;8.55;0.90;;;22.00;96.60;;;;;;5000522;28;20056;-81
2022/07/16 10:06:00;;;;;;;4.65;0.90;;;22.00;96.70;;;;;;5007542;28;20046;-81
2022/07/16 10:08:26;;;;;;;3.28;0.52;;;21.90;96.70;;;;;;5007925;28;20049;-81
2022/07/16 10:10:52;;;;;;;4.40;1.05;;;22.00;96.90;;;;;;4988645;28;20148;-80
2022/07/16 10:13:23;;;;;;;7.28;0.70;;;22.40;97.00;;;;;;5023761;28;20040;-81
2022/07/16 10:15:49;;;;;;;4.97;0.70;;;22.80;96.60;;;;;;5019050;28;20055;-81
2022/07/16 10:18:45;;;;;;;6.03;0.90;;;23.10;96.30;;;;;;5022347;28;20033;-85
2022/07/16 10:21:50;;;;;;;2.20;0.80;;;23.20;95.90;;;;;;5003200;28;20519;-81
2022/07/16 10:24:57;;;;;;;1.52;0.38;;;23.00;94.90;;;;;;4927357;28;20054;-82
2022/07/16 10:27:45;;;;;;;5.97;0.60;;;23.40;94.90;;;;;;4873708;29;20057;-85
2022/07/16 10:30:26;;;;;;;4.72;0.80;;;23.60;93.90;;;;;;4885620;29;20060;-82
2022/07/16 10:33:02;;;;;;;1.98;0.30;;;23.80;93.10;;;;;;4861287;29;20041;-81
2022/07/16 10:35:45;;;;;;;4.43;0.68;;;24.00;93.60;;;;;;4911084;29;20129;-83
2022/07/16 10:39:12;;;;;;;3.17;0.90;;;24.30;93.40;;;;;;4920032;29;20114;-82
2022/07/16 10:41:47;;;;;;;4.55;0.40;;;24.50;92.80;;;;;;4918159;29;20070;-83
2022/07/16 10:44:12;;;;;;;10.57;0.87;;;24.30;93.20;;;;;;4927855;29;20047;-81
2022/07/16 10:46:52;;;;;;;5.22;0.60;;;24.20;93.30;;;;;;4955972;28;20593;-82
2022/07/16 10:49:22;;;;;;;3.75;0.60;;;23.80;93.20;;;;;;4989140;28;20092;-82
2022/07/16 10:52:05;;;;;;;3.78;0.88;;;24.00;94.40;;;;;;5003333;28;20428;-80
2022/07/16 10:54:35;;;;;;;4.30;0.93;;;24.30;93.40;;;;;;5017889;28;20057;-80
2022/07/16 10:57:09;;;;;;;2.88;0.60;;;24.40;93.30;;;;;;5005270;28;20071;-80
2022/07/16 10:59:40;;;;;;;5.03;0.80;;;24.60;94.10;;;;;;5007824;28;20052;-81
2022/07/16 11:02:10;;;;;;;5.47;0.70;;;24.80;94.00;;;;;;4998540;28;20509;-82
2022/07/16 11:04:39;;;;;;;5.60;0.70;;;24.90;93.20;;;;;;5019379;28;20053;-81
2022/07/16 11:07:08;;;;;;;2.65;0.40;;;24.80;93.50;;;;;;5021650;28;20056;-79
2022/07/16 11:09:38;;;;;;;3.75;0.70;;;24.50;92.90;;;;;;5010857;28;20049;-83
2022/07/16 11:12:14;;;;;;;4.40;0.73;;;24.10;93.30;;;;;;5007261;28;20501;-81
2022/07/16 11:14:42;;;;;;;5.32;1.00;;;23.90;93.30;;;;;;5003659;28;20411;-80
2022/07/16 11:17:08;;;;;;;5.82;0.80;;;23.60;93.80;;;;;;5007241;28;20099;-79
2022/07/16 11:20:05;;;;;;;3.70;0.63;;;23.30;94.70;;;;;;5007127;28;20045;-82
2022/07/16 11:22:31;;;;;;;6.25;0.90;;;23.60;96.00;;;;;;5009122;28;20057;-81
2022/07/16 11:25:04;;;;;;;5.80;0.60;;;23.90;95.10;;;;;;5015605;28;20037;-80
2022/07/16 11:27:36;;;;;;;4.63;0.77;;;23.90;95.00;;;;;;5008119;28;20148;-81
2022/07/16 11:30:07;;;;;;;4.25;1.05;;;24.20;94.40;;;;;;5011941;28;20060;-81
2022/07/16 11:32:32;;;;;;;4.38;1.33;;;24.00;95.70;;;;;;5025490;28;20546;-79
2022/07/16 11:35:05;;;;;;;6.22;0.88;;;24.00;94.70;;;;;;5014220;28;20049;-81
2022/07/16 11:37:57;;;;;;;4.20;0.93;;;23.80;94.50;;;;;;5009815;28;20447;-82
2022/07/16 11:40:37;;;;;;;6.63;1.10;;;23.50;94.50;;;;;;4999849;28;20595;-80
2022/07/16 11:43:04;;;;;;;3.97;0.85;;;23.50;94.70;;;;;;5029884;28;20475;-82
2022/07/16 11:45:43;;;;;;;5.05;0.60;;;23.50;94.70;;;;;;5011644;28;20423;-80
2022/07/16 11:48:16;;;;;;;4.60;0.82;;;23.70;94.60;;;;;;5010087;28;20045;-80
2022/07/16 11:50:43;;;;;;;3.83;0.75;;;23.60;94.20;;;;;;5017269;28;20164;-80
2022/07/16 11:53:11;;;;;;;5.22;1.20;;;23.50;94.10;;;;;;5025358;28;20049;-81
2022/07/16 11:55:46;;;;;;;2.90;0.77;;;23.50;94.30;;;;;;5012419;28;20041;-81
2022/07/16 11:58:12;;;;;;;5.57;0.70;;;23.30;94.80;;;;;;5023372;28;20052;-80
2022/07/16 12:00:48;;;;;;;6.15;0.60;;;23.10;94.80;;;;;;5008315;28;20599;-82
2022/07/16 12:03:27;;;;;;;7.07;0.70;;;23.10;95.30;;;;;;5005319;28;20042;-82
2022/07/16 12:06:05;;;;;;;3.88;0.70;;;23.10;94.90;;;;;;5004130;28;20509;-82
2022/07/16 12:08:33;;;;;;;6.60;0.50;;;23.00;94.80;;;;;;4993612;28;20096;-80
2022/07/16 12:11:04;;;;;;;4.70;0.50;;;23.20;94.50;;;;;;5033600;28;20563;-79
2022/07/16 12:13:36;;;;;;;2.55;0.40;;;23.40;94.70;;;;;;5015965;28;20056;-81
2022/07/16 12:16:01;;;;;;;4.43;0.68;;;23.70;94.20;;;;;;5008432;28;20044;-82
2022/07/16 12:18:27;;;;;;;3.25;0.50;;;23.90;94.70;;;;;;5004686;28;20033;-81
2022/07/16 12:20:53;;;;;;;6.65;0.70;;;24.10;94.50;;;;;;5008477;28;20045;-81
2022/07/16 12:23:46;;;;;;;5.10;1.17;;;24.10;94.20;;;;;;5002054;28;20607;-82
2022/07/16 12:26:12;;;;;;;2.90;0.75;;;24.20;92.70;;;;;;5010292;28;20085;-79
2022/07/16 12:28:37;;;;;;;4.65;0.60;;;24.40;93.10;;;;;;5032047;28;20495;-80
2022/07/16 12:31:11;;;;;;;1.98;0.63;;;24.50;93.40;;;;;;5013126;28;20034;-78
2022/07/16 12:33:37;;;;;;;6.25;0.93;;;24.50;93.20;;;;;;5017762;28;20106;-79
2022/07/16 12:36:07;;;;;;;2.92;0.98;;;24.50;93.70;;;;;;5014531;28;20037;-80
2022/07/16 12:38:48;;;;;;;3.75;0.50;;;24.60;92.60;;;;;;5030628;28;20056;-79
2022/07/16 12:41:17;;;;;;;2.35;0.70;;;24.70;92.40;;;;;;5019423;28;20127;-79
2022/07/16 12:43:47;;;;;;;5.20;1.00;;;24.60;92.20;;;;;;5019675;28;20626;-79
2022/07/16 12:46:14;;;;;;;2.70;0.60;;;24.60;92.70;;;;;;5009612;28;20049;-79
2022/07/16 12:48:45;;;;;;;5.38;1.02;;;24.60;92.50;;;;;;5011525;28;20065;-79
2022/07/16 12:51:14;;;;;;;3.85;0.57;;;24.40;92.00;;;;;;5026391;28;20677;-81
2022/07/16 12:53:40;;;;;;;3.70;0.82;;;23.90;92.00;;;;;;5021218;28;20440;-79
2022/07/16 12:59:08;;;;;;;4.03;0.60;;;23.50;92.40;;;;;;4958396;28;20054;-79
2022/07/16 13:01:34;;;;;;;3.28;0.80;;;23.60;92.90;;;;;;5019021;28;20088;-79
2022/07/16 13:04:00;;;;;;;4.03;0.85;;;23.80;92.30;;;;;;5030227;28;20045;-78
2022/07/16 13:06:26;;;;;;;14.63;0.80;;;23.90;91.70;;;;;;5032333;28;20132;-80
2022/07/16 13:08:52;;;;;;;4.40;0.63;;;24.00;92.00;;;;;;5014776;28;20057;-79
2022/07/16 13:11:19;;;;;;;2.55;0.45;;;23.90;91.90;;;;;;5019513;28;20052;-79
2022/07/16 13:13:45;;;;;;;7.13;1.17;;;23.80;91.80;;;;;;5013223;28;20042;-80
2022/07/16 13:16:12;;;;;;;11.38;0.73;;;23.60;92.00;;;;;;5018251;28;20119;-79
2022/07/16 13:18:38;;;;;;;6.30;0.60;;;23.50;92.10;;;;;;5003637;28;20030;-80
2022/07/16 13:21:04;;;;;;;2.25;0.40;;;23.30;91.60;;;;;;4999499;28;20109;-79
2022/07/16 13:23:31;;;;;;;5.47;0.60;;;23.20;92.20;;;;;;5020993;28;20094;-79